Time;durP1;ratioP1;P1;durP2;ratioP2;P2;SDS_P1;SDS_P2;PMS_P1;PMS_P2;Temp;Humidity;BMP_temperature;BMP_pressure;BME280_temperature;BME280_humidity;BME280_pressure;Samples;Min_cycle;Max_cycle;Signal;HPM_P1;HPM_P2
2021/05/19 00:01:25;;;;;;;2.83;0.90;;;;;;;;;;5020964;28;20078;-71
2021/05/19 00:03:51;;;;;;;1.38;0.75;;;;;;;;;;5019449;28;20134;-72
2021/05/19 00:06:17;;;;;;;4.13;0.75;;;;;;;;;;5028842;28;20448;-72
2021/05/19 00:08:43;;;;;;;2.92;0.90;;;;;;;;;;5027409;28;20026;-69
2021/05/19 00:11:09;;;;;;;2.28;0.93;;;;;;;;;;5028650;28;20018;-71
2021/05/19 00:13:36;;;;;;;2.70;1.00;;;;;;;;;;5028368;28;20030;-81
2021/05/19 00:16:03;;;;;;;2.10;0.88;;;;;;;;;;5028401;28;20018;-74
2021/05/19 00:18:29;;;;;;;2.20;0.80;;;;;;;;;;5026954;28;20021;-78
2021/05/19 00:20:55;;;;;;;2.85;0.85;;;;;;;;;;5028135;28;20036;-70
2021/05/19 00:23:21;;;;;;;2.10;0.90;;;;;;;;;;5026823;28;20363;-71
2021/05/19 00:25:47;;;;;;;3.13;0.82;;;;;;;;;;5028183;28;20030;-72
2021/05/19 00:28:13;;;;;;;2.00;0.80;;;;;;;;;;5027095;28;20656;-74
2021/05/19 00:30:40;;;;;;;4.55;0.90;;;;;;;;;;5028460;28;20033;-72
2021/05/19 00:33:06;;;;;;;1.92;0.80;;;;;;;;;;5028740;28;20028;-72
2021/05/19 00:35:32;;;;;;;3.50;1.10;;;;;;;;;;5027469;28;20435;-71
2021/05/19 00:37:58;;;;;;;2.28;0.75;;;;;;;;;;5022551;28;20275;-72
2021/05/19 00:40:25;;;;;;;2.03;0.70;;;;;;;;;;5028587;28;20513;-76
2021/05/19 00:42:54;;;;;;;2.58;0.80;;;;;;;;;;5027352;28;20130;-79
2021/05/19 00:45:20;;;;;;;3.72;1.02;;;;;;;;;;5023932;28;20025;-74
2021/05/19 00:47:46;;;;;;;4.13;0.80;;;;;;;;;;5028574;28;20518;-73
2021/05/19 00:50:14;;;;;;;2.90;0.88;;;;;;;;;;5028358;28;20102;-74
2021/05/19 00:52:40;;;;;;;1.95;0.70;;;;;;;;;;5028401;28;20025;-72
2021/05/19 00:55:07;;;;;;;3.72;1.00;;;;;;;;;;5028872;28;20048;-76
2021/05/19 00:57:34;;;;;;;3.53;0.90;;;;;;;;;;5028998;28;20045;-81
2021/05/19 01:00:00;;;;;;;2.47;0.90;;;;;;;;;;5027043;28;20036;-88
2021/05/19 01:02:26;;;;;;;1.42;0.63;;;;;;;;;;5028218;28;20026;-78
2021/05/19 01:04:53;;;;;;;1.58;0.70;;;;;;;;;;5028647;28;20389;-68
2021/05/19 01:07:30;;;;;;;1.98;0.88;;;;;;;;;;5027791;28;20018;-68
2021/05/19 01:09:56;;;;;;;5.10;0.90;;;;;;;;;;4991675;28;20103;-68
2021/05/19 01:12:23;;;;;;;7.53;1.17;;;;;;;;;;4991765;28;20033;-67
2021/05/19 01:14:50;;;;;;;4.72;0.93;;;;;;;;;;4991778;28;20136;-67
2021/05/19 01:17:17;;;;;;;9.52;1.38;;;;;;;;;;5023290;28;20034;-68
2021/05/19 01:19:44;;;;;;;17.40;1.13;;;;;;;;;;4991603;28;20031;-67
2021/05/19 01:22:20;;;;;;;8.35;0.80;;;;;;;;;;4991450;28;20053;-68
2021/05/19 01:24:47;;;;;;;3.30;0.80;;;;;;;;;;4991544;28;20049;-68
2021/05/19 01:27:13;;;;;;;7.70;0.90;;;;;;;;;;4991565;28;20093;-67
2021/05/19 01:29:39;;;;;;;5.25;0.80;;;;;;;;;;5023087;28;20493;-68
2021/05/19 01:32:05;;;;;;;7.22;1.15;;;;;;;;;;4990708;28;20093;-67
2021/05/19 01:34:31;;;;;;;4.15;0.90;;;;;;;;;;4990710;28;20113;-68
2021/05/19 01:36:57;;;;;;;4.95;1.10;;;;;;;;;;4990468;28;20660;-69
2021/05/19 01:39:23;;;;;;;5.20;0.90;;;;;;;;;;4990453;28;20149;-68
2021/05/19 01:41:50;;;;;;;4.68;0.90;;;;;;;;;;4990661;28;20033;-68
2021/05/19 01:44:18;;;;;;;2.00;0.75;;;;;;;;;;5021673;28;20429;-68
2021/05/19 01:46:44;;;;;;;1.85;0.70;;;;;;;;;;4990304;28;20018;-73
2021/05/19 01:49:11;;;;;;;1.65;0.65;;;;;;;;;;4990394;28;20019;-68
2021/05/19 01:51:38;;;;;;;3.80;0.85;;;;;;;;;;4990482;28;20053;-69
2021/05/19 01:54:06;;;;;;;1.98;0.70;;;;;;;;;;4990410;28;20071;-68
2021/05/19 01:56:34;;;;;;;0.95;0.57;;;;;;;;;;4990500;28;20043;-68
2021/05/19 01:59:00;;;;;;;2.17;0.70;;;;;;;;;;4990308;28;20027;-68
2021/05/19 02:01:27;;;;;;;3.22;0.75;;;;;;;;;;4990782;28;20438;-68
2021/05/19 02:04:03;;;;;;;1.63;0.70;;;;;;;;;;4990861;28;20053;-67
2021/05/19 02:06:40;;;;;;;3.75;1.10;;;;;;;;;;4990994;28;20490;-68
2021/05/19 02:09:06;;;;;;;3.42;1.17;;;;;;;;;;5022402;28;20029;-66
2021/05/19 02:11:33;;;;;;;2.35;1.00;;;;;;;;;;4990837;28;20026;-68
2021/05/19 02:14:00;;;;;;;2.42;0.85;;;;;;;;;;4990856;28;20026;-68
2021/05/19 02:16:26;;;;;;;2.53;0.88;;;;;;;;;;4989970;28;20483;-68
2021/05/19 02:18:52;;;;;;;2.10;0.70;;;;;;;;;;4991098;28;20030;-67
2021/05/19 02:21:18;;;;;;;1.42;0.70;;;;;;;;;;4990596;28;20035;-68
2021/05/19 02:23:44;;;;;;;2.35;0.90;;;;;;;;;;4990744;28;20027;-67
2021/05/19 02:26:10;;;;;;;4.30;0.80;;;;;;;;;;4990681;28;20084;-68
2021/05/19 02:28:36;;;;;;;2.60;0.70;;;;;;;;;;4990720;28;20022;-68
2021/05/19 02:31:03;;;;;;;1.88;0.60;;;;;;;;;;4990552;28;20057;-68
2021/05/19 02:33:29;;;;;;;3.80;1.00;;;;;;;;;;5022018;28;20363;-68
2021/05/19 02:35:55;;;;;;;2.35;0.80;;;;;;;;;;4990302;28;20027;-68
2021/05/19 02:38:21;;;;;;;1.73;0.70;;;;;;;;;;4990437;28;20026;-68
2021/05/19 02:40:48;;;;;;;2.13;0.88;;;;;;;;;;4990575;28;20034;-68
2021/05/19 02:43:14;;;;;;;2.13;0.85;;;;;;;;;;5021777;28;20022;-68
2021/05/19 02:45:40;;;;;;;3.15;0.70;;;;;;;;;;4990492;28;20019;-68
2021/05/19 02:48:06;;;;;;;2.60;0.90;;;;;;;;;;4990191;28;20025;-67
2021/05/19 02:50:32;;;;;;;3.70;1.05;;;;;;;;;;4990185;28;20026;-68
2021/05/19 02:52:58;;;;;;;2.00;0.88;;;;;;;;;;4989925;28;20135;-68
2021/05/19 02:55:24;;;;;;;1.80;0.70;;;;;;;;;;5021799;28;20030;-67
2021/05/19 02:57:50;;;;;;;4.53;0.88;;;;;;;;;;4990273;28;20027;-68
2021/05/19 03:00:17;;;;;;;2.10;0.80;;;;;;;;;;4989809;28;20483;-67
2021/05/19 03:02:43;;;;;;;2.65;0.90;;;;;;;;;;4989959;28;20023;-68
2021/05/19 03:05:09;;;;;;;8.13;1.02;;;;;;;;;;4990176;28;20014;-71
2021/05/19 03:07:35;;;;;;;2.88;1.02;;;;;;;;;;4990111;28;20029;-67
2021/05/19 03:10:02;;;;;;;3.00;0.95;;;;;;;;;;4989979;28;20100;-68
2021/05/19 03:12:28;;;;;;;4.60;0.90;;;;;;;;;;4989853;28;20128;-67
2021/05/19 03:14:55;;;;;;;4.35;1.00;;;;;;;;;;4990038;28;20136;-67
2021/05/19 03:17:21;;;;;;;3.03;1.05;;;;;;;;;;4989888;28;20015;-68
2021/05/19 03:19:48;;;;;;;7.13;0.85;;;;;;;;;;4989698;28;20368;-67
2021/05/19 03:22:14;;;;;;;2.15;1.00;;;;;;;;;;4989699;28;20109;-67
2021/05/19 03:24:41;;;;;;;1.67;0.70;;;;;;;;;;4989888;28;20034;-68
2021/05/19 03:27:07;;;;;;;2.35;0.85;;;;;;;;;;4988948;28;20018;-67
2021/05/19 03:29:33;;;;;;;2.47;0.80;;;;;;;;;;4989740;28;20030;-68
2021/05/19 03:31:59;;;;;;;2.70;0.90;;;;;;;;;;5021142;28;20033;-67
2021/05/19 03:34:25;;;;;;;2.40;0.90;;;;;;;;;;4989642;28;20030;-67
2021/05/19 03:36:52;;;;;;;1.45;0.63;;;;;;;;;;5020881;28;20054;-67
2021/05/19 03:39:18;;;;;;;2.70;1.00;;;;;;;;;;4989481;28;20018;-66
2021/05/19 03:41:44;;;;;;;3.33;0.82;;;;;;;;;;4989547;28;20054;-68
2021/05/19 03:44:10;;;;;;;2.08;0.80;;;;;;;;;;4989327;28;20038;-68
2021/05/19 03:46:36;;;;;;;1.98;0.90;;;;;;;;;;4989692;28;20050;-68
2021/05/19 03:49:03;;;;;;;1.88;0.90;;;;;;;;;;4989347;28;20022;-67
2021/05/19 03:51:29;;;;;;;2.08;1.00;;;;;;;;;;5020961;28;20030;-68
2021/05/19 03:53:56;;;;;;;3.30;0.80;;;;;;;;;;4989298;28;20027;-68
2021/05/19 03:56:22;;;;;;;3.97;1.23;;;;;;;;;;5020330;28;20038;-69
2021/05/19 03:58:48;;;;;;;2.28;0.90;;;;;;;;;;4988884;28;20023;-67
2021/05/19 04:01:15;;;;;;;2.25;0.85;;;;;;;;;;4989037;28;20061;-67
2021/05/19 04:03:41;;;;;;;1.58;0.63;;;;;;;;;;5020596;28;20095;-69
2021/05/19 04:06:07;;;;;;;1.60;0.90;;;;;;;;;;5020654;28;20035;-67
2021/05/19 04:08:37;;;;;;;1.52;0.75;;;;;;;;;;4989160;28;20083;-67
2021/05/19 04:11:04;;;;;;;2.03;0.82;;;;;;;;;;5020842;28;20061;-68
2021/05/19 04:13:30;;;;;;;1.48;0.60;;;;;;;;;;5020726;28;20053;-67
2021/05/19 04:15:56;;;;;;;3.10;0.90;;;;;;;;;;4989087;28;20022;-71
2021/05/19 04:18:23;;;;;;;7.53;1.00;;;;;;;;;;5020510;28;20046;-68
2021/05/19 04:20:49;;;;;;;2.13;1.00;;;;;;;;;;4988782;28;20064;-68
2021/05/19 04:23:16;;;;;;;2.28;0.85;;;;;;;;;;4988785;28;20023;-68
2021/05/19 04:25:42;;;;;;;2.75;1.02;;;;;;;;;;4989073;28;20084;-70
2021/05/19 04:28:08;;;;;;;1.63;0.80;;;;;;;;;;4989139;28;20030;-66
2021/05/19 04:30:35;;;;;;;2.50;0.82;;;;;;;;;;4988906;28;20023;-66
2021/05/19 04:33:01;;;;;;;2.35;0.93;;;;;;;;;;4988902;28;20023;-67
2021/05/19 04:35:27;;;;;;;3.55;0.80;;;;;;;;;;4988799;28;20083;-66
2021/05/19 04:37:53;;;;;;;3.22;0.90;;;;;;;;;;4988405;28;20050;-66
2021/05/19 04:40:19;;;;;;;3.45;0.90;;;;;;;;;;5022835;28;20046;-67
2021/05/19 04:42:47;;;;;;;2.20;1.00;;;;;;;;;;4992300;28;20022;-67
2021/05/19 04:45:13;;;;;;;1.63;0.80;;;;;;;;;;4992147;28;20053;-66
2021/05/19 04:47:40;;;;;;;2.25;0.80;;;;;;;;;;4992317;28;20046;-66
2021/05/19 04:50:07;;;;;;;2.53;0.93;;;;;;;;;;4991990;28;20105;-66
2021/05/19 04:52:33;;;;;;;3.10;1.27;;;;;;;;;;4991939;28;20046;-66
2021/05/19 04:55:01;;;;;;;1.98;0.68;;;;;;;;;;4991946;28;20030;-68
2021/05/19 04:57:27;;;;;;;3.65;1.30;;;;;;;;;;4991867;28;20023;-66
2021/05/19 04:59:53;;;;;;;2.03;0.90;;;;;;;;;;5023387;28;20107;-67
2021/05/19 05:02:20;;;;;;;3.10;0.90;;;;;;;;;;5023162;28;20033;-68
2021/05/19 05:04:46;;;;;;;2.97;1.02;;;;;;;;;;4991845;28;20054;-67
2021/05/19 05:07:12;;;;;;;2.08;0.90;;;;;;;;;;5023287;28;20029;-68
2021/05/19 05:09:38;;;;;;;1.92;0.93;;;;;;;;;;4991684;28;20031;-67
2021/05/19 05:12:04;;;;;;;3.60;1.00;;;;;;;;;;4991456;28;20027;-67
2021/05/19 05:14:30;;;;;;;2.60;1.02;;;;;;;;;;4991650;28;20117;-71
2021/05/19 05:16:56;;;;;;;3.30;1.00;;;;;;;;;;5023029;28;20023;-67
2021/05/19 05:19:22;;;;;;;3.00;1.08;;;;;;;;;;5023081;28;20037;-68
2021/05/19 05:21:48;;;;;;;2.83;0.93;;;;;;;;;;4991463;28;20030;-67
2021/05/19 05:24:14;;;;;;;2.60;0.85;;;;;;;;;;4991536;28;20027;-69
2021/05/19 05:26:40;;;;;;;2.88;0.93;;;;;;;;;;4991488;28;20027;-67
2021/05/19 05:29:06;;;;;;;2.50;1.10;;;;;;;;;;4991453;28;20027;-66
2021/05/19 05:31:32;;;;;;;3.00;1.00;;;;;;;;;;5022082;28;20129;-67
2021/05/19 05:33:58;;;;;;;2.55;1.00;;;;;;;;;;4990646;28;20027;-71
2021/05/19 05:36:24;;;;;;;2.28;1.08;;;;;;;;;;4990628;28;20183;-67
2021/05/19 05:38:51;;;;;;;2.30;0.82;;;;;;;;;;4990700;28;20030;-67
2021/05/19 05:41:17;;;;;;;3.15;1.10;;;;;;;;;;5021891;28;20034;-68
2021/05/19 05:43:43;;;;;;;1.77;0.88;;;;;;;;;;4990569;28;20101;-68
2021/05/19 05:46:09;;;;;;;2.95;1.00;;;;;;;;;;4990367;28;20097;-68
2021/05/19 05:48:35;;;;;;;2.28;0.90;;;;;;;;;;5021946;28;20033;-68
2021/05/19 05:51:01;;;;;;;3.67;1.02;;;;;;;;;;4989210;28;20030;-69
2021/05/19 05:53:27;;;;;;;2.15;0.90;;;;;;;;;;4990313;28;20101;-69
2021/05/19 05:55:53;;;;;;;2.00;0.90;;;;;;;;;;4990852;28;20026;-67
2021/05/19 05:58:20;;;;;;;2.30;1.00;;;;;;;;;;5022423;28;20094;-68
2021/05/19 06:00:46;;;;;;;1.85;0.80;;;;;;;;;;4990804;28;20039;-72
2021/05/19 06:03:12;;;;;;;2.35;1.00;;;;;;;;;;4990844;28;20502;-71
2021/05/19 06:05:38;;;;;;;5.20;1.00;;;;;;;;;;4991140;28;20065;-78
2021/05/19 06:08:05;;;;;;;2.35;0.82;;;;;;;;;;4990960;28;20428;-68
2021/05/19 06:10:31;;;;;;;2.95;1.10;;;;;;;;;;5022490;28;20125;-68
2021/05/19 06:12:57;;;;;;;2.08;0.90;;;;;;;;;;4990875;28;20022;-77
2021/05/19 06:15:23;;;;;;;2.58;1.10;;;;;;;;;;4990603;28;20542;-68
2021/05/19 06:17:50;;;;;;;3.70;0.82;;;;;;;;;;5021876;28;20052;-76
2021/05/19 06:20:16;;;;;;;3.78;1.20;;;;;;;;;;5021698;28;20065;-68
2021/05/19 06:22:42;;;;;;;2.15;0.88;;;;;;;;;;5021848;28;20109;-68
2021/05/19 06:25:08;;;;;;;3.65;1.10;;;;;;;;;;5021858;28;20030;-69
2021/05/19 06:27:34;;;;;;;2.40;1.02;;;;;;;;;;5021947;28;20093;-68
2021/05/19 06:30:01;;;;;;;2.00;0.98;;;;;;;;;;5021762;28;20026;-70
2021/05/19 06:32:27;;;;;;;3.50;1.08;;;;;;;;;;4990259;28;20022;-68
2021/05/19 06:34:53;;;;;;;5.18;1.20;;;;;;;;;;4990071;28;20047;-68
2021/05/19 06:37:19;;;;;;;3.83;1.10;;;;;;;;;;4990046;28;20038;-68
2021/05/19 06:39:45;;;;;;;4.03;0.95;;;;;;;;;;5021474;28;20026;-68
2021/05/19 06:42:12;;;;;;;3.95;1.20;;;;;;;;;;5021712;28;20026;-68
2021/05/19 06:44:38;;;;;;;2.63;1.00;;;;;;;;;;4990458;28;20483;-69
2021/05/19 06:47:04;;;;;;;2.85;1.02;;;;;;;;;;4990215;28;20041;-72
2021/05/19 06:49:30;;;;;;;3.15;0.82;;;;;;;;;;4990223;28;20117;-74
2021/05/19 06:51:57;;;;;;;2.75;1.00;;;;;;;;;;4990069;28;20041;-67
2021/05/19 06:54:23;;;;;;;2.15;1.00;;;;;;;;;;4989871;28;20034;-68
2021/05/19 06:56:49;;;;;;;1.83;0.90;;;;;;;;;;4989695;28;20072;-69
2021/05/19 06:59:17;;;;;;;2.88;1.17;;;;;;;;;;4989681;28;20101;-68
2021/05/19 07:01:43;;;;;;;3.45;1.05;;;;;;;;;;4989248;28;20031;-68
2021/05/19 07:04:10;;;;;;;5.53;0.90;;;;;;;;;;4989417;28;20470;-68
2021/05/19 07:06:36;;;;;;;4.10;1.13;;;;;;;;;;4989395;28;20447;-68
2021/05/19 07:09:02;;;;;;;6.88;1.20;;;;;;;;;;4989934;28;20027;-69
2021/05/19 07:11:28;;;;;;;2.55;0.82;;;;;;;;;;4989800;28;20406;-68
2021/05/19 07:13:56;;;;;;;2.10;1.00;;;;;;;;;;5021364;28;20062;-70
2021/05/19 07:16:24;;;;;;;2.05;0.93;;;;;;;;;;5005821;28;20028;-68
2021/05/19 07:18:55;;;;;;;5.88;1.05;;;;;;;;;;5005790;28;20022;-78
2021/05/19 07:21:22;;;;;;;3.17;0.95;;;;;;;;;;5007937;28;20032;-69
2021/05/19 07:23:48;;;;;;;3.28;1.02;;;;;;;;;;5008070;28;20494;-71
2021/05/19 07:26:14;;;;;;;2.15;0.80;;;;;;;;;;5028621;28;20026;-68
2021/05/19 07:28:40;;;;;;;2.53;1.05;;;;;;;;;;5007838;28;20022;-67
2021/05/19 07:31:07;;;;;;;5.65;1.27;;;;;;;;;;5007958;28;20026;-68
2021/05/19 07:33:33;;;;;;;7.97;1.40;;;;;;;;;;5010952;28;20041;-72
2021/05/19 07:35:59;;;;;;;10.05;1.58;;;;;;;;;;5009419;28;20034;-79
2021/05/19 07:38:25;;;;;;;9.30;2.42;;;;;;;;;;5007837;28;20064;-68
2021/05/19 07:40:51;;;;;;;12.00;2.17;;;;;;;;;;5010575;28;20037;-73
2021/05/19 07:43:18;;;;;;;13.35;2.13;;;;;;;;;;5038768;28;20474;-68
2021/05/19 07:45:44;;;;;;;7.53;1.65;;;;;;;;;;5029098;28;20443;-75
2021/05/19 07:48:11;;;;;;;8.52;1.77;;;;;;;;;;5027503;28;20053;-71
2021/05/19 07:50:40;;;;;;;9.43;2.13;;;;;;;;;;5028433;28;20116;-70
2021/05/19 07:53:06;;;;;;;6.78;2.10;;;;;;;;;;5028560;28;20026;-69
2021/05/19 07:58:21;;;;;;;10.52;1.80;;;;;;;;;;5007295;28;20026;-71
2021/05/19 08:01:42;;;;;;;5.80;1.92;;;;;;;;;;5007963;28;20416;-75
2021/05/19 08:03:36;;;;;;;13.02;2.28;;;;;;;;;;5013573;28;20034;-73
2021/05/19 08:06:03;;;;;;;10.20;1.92;;;;;;;;;;5008623;28;20026;-72
2021/05/19 08:08:29;;;;;;;5.60;1.50;;;;;;;;;;5008501;28;20034;-70
2021/05/19 08:10:55;;;;;;;4.72;1.50;;;;;;;;;;5008567;28;20475;-69
2021/05/19 08:13:21;;;;;;;8.73;1.75;;;;;;;;;;5008432;28;20119;-67
2021/05/19 08:15:47;;;;;;;7.30;2.00;;;;;;;;;;5010006;28;20091;-72
2021/05/19 08:18:14;;;;;;;9.20;2.20;;;;;;;;;;5011842;28;20025;-70
2021/05/19 08:20:40;;;;;;;8.35;1.58;;;;;;;;;;5043514;28;20065;-69
2021/05/19 08:23:07;;;;;;;7.82;2.15;;;;;;;;;;5011687;28;20478;-70
2021/05/19 08:25:33;;;;;;;7.28;1.73;;;;;;;;;;5011224;28;20074;-72
2021/05/19 08:27:59;;;;;;;5.88;1.50;;;;;;;;;;5010614;28;20097;-73
2021/05/19 08:30:26;;;;;;;5.35;1.55;;;;;;;;;;5030533;28;20062;-71
2021/05/19 08:32:52;;;;;;;7.18;1.83;;;;;;;;;;5009619;28;20034;-72
2021/05/19 08:35:19;;;;;;;5.57;1.55;;;;;;;;;;5010033;28;20187;-73
2021/05/19 08:37:45;;;;;;;5.95;1.50;;;;;;;;;;5043064;28;20402;-77
2021/05/19 08:40:11;;;;;;;5.60;1.40;;;;;;;;;;5012196;28;20038;-82
2021/05/19 08:42:37;;;;;;;5.57;1.55;;;;;;;;;;5042548;28;20364;-78
2021/05/19 08:45:05;;;;;;;3.58;1.20;;;;;;;;;;4993169;28;20046;-74
2021/05/19 08:47:31;;;;;;;5.60;1.60;;;;;;;;;;5023807;28;20049;-69
2021/05/19 08:49:57;;;;;;;4.60;1.48;;;;;;;;;;4992975;28;20106;-87
2021/05/19 08:52:23;;;;;;;5.10;1.52;;;;;;;;;;4991928;28;20034;-70
2021/05/19 08:54:53;;;;;;;7.70;1.67;;;;;;;;;;4991809;28;20027;-70
2021/05/19 08:57:19;;;;;;;3.35;1.10;;;;;;;;;;5024370;28;20088;-74
2021/05/19 08:59:45;;;;;;;6.75;1.48;;;;;;;;;;5002039;28;20022;-68
2021/05/19 09:02:13;;;;;;;8.23;1.40;;;;;;;;;;5011772;28;20482;-74
2021/05/19 09:04:39;;;;;;;3.88;1.40;;;;;;;;;;5012077;28;20026;-75
2021/05/19 09:07:06;;;;;;;4.50;1.50;;;;;;;;;;5009704;28;20018;-74
2021/05/19 09:09:36;;;;;;;3.22;1.20;;;;;;;;;;5012142;28;20488;-72
2021/05/19 09:12:07;;;;;;;3.20;1.13;;;;;;;;;;5042814;28;20018;-80
2021/05/19 09:14:34;;;;;;;3.80;1.17;;;;;;;;;;5011010;28;20018;-73
2021/05/19 09:17:16;;;;;;;2.65;1.33;;;;;;;;;;5044123;28;20017;-80
2021/05/19 09:19:42;;;;;;;22.33;1.67;;;;;;;;;;5012733;28;20034;-81
2021/05/19 09:22:16;;;;;;;14.68;1.40;;;;;;;;;;5043457;27;20025;-70
2021/05/19 09:24:42;;;;;;;14.57;1.45;;;;;;;;;;5028467;28;20035;-73
2021/05/19 09:27:08;;;;;;;5.90;1.60;;;;;;;;;;4991162;28;20479;-74
2021/05/19 09:29:35;;;;;;;8.35;1.40;;;;;;;;;;4990996;28;20053;-74
2021/05/19 09:32:02;;;;;;;3.53;1.10;;;;;;;;;;4991665;28;20401;-72
2021/05/19 09:34:29;;;;;;;9.20;1.73;;;;;;;;;;4991683;28;20144;-73
2021/05/19 09:37:12;;;;;;;4.38;1.13;;;;;;;;;;4991490;28;20050;-74
2021/05/19 09:39:45;;;;;;;7.82;1.45;;;;;;;;;;4991698;28;20026;-71
2021/05/19 09:42:11;;;;;;;4.78;1.10;;;;;;;;;;4992360;28;20448;-73
2021/05/19 09:44:37;;;;;;;10.35;1.42;;;;;;;;;;4991724;28;20018;-73
2021/05/19 09:47:04;;;;;;;4.55;1.17;;;;;;;;;;4991593;28;20022;-73
2021/05/19 09:49:30;;;;;;;8.30;1.13;;;;;;;;;;5023106;28;20454;-78
2021/05/19 09:51:58;;;;;;;2.83;0.95;;;;;;;;;;4991365;28;20033;-75
2021/05/19 09:54:25;;;;;;;6.95;1.17;;;;;;;;;;4991391;28;20510;-77
2021/05/19 09:56:55;;;;;;;5.65;1.00;;;;;;;;;;5023150;28;20041;-72
2021/05/19 09:59:22;;;;;;;2.65;0.95;;;;;;;;;;5011033;28;20531;-74
2021/05/19 10:01:48;;;;;;;4.13;1.35;;;;;;;;;;5010875;28;20121;-73
2021/05/19 10:04:15;;;;;;;4.57;0.90;;;;;;;;;;5010800;28;20018;-75
2021/05/19 10:06:41;;;;;;;1.92;0.73;;;;;;;;;;5010987;28;20026;-75
2021/05/19 10:09:07;;;;;;;2.33;0.77;;;;;;;;;;5042355;28;20412;-73
2021/05/19 10:11:33;;;;;;;4.47;1.10;;;;;;;;;;5042638;28;20022;-71
2021/05/19 10:14:02;;;;;;;3.97;1.10;;;;;;;;;;5042275;28;20051;-79
2021/05/19 10:16:28;;;;;;;2.90;0.90;;;;;;;;;;4996045;28;20109;-75
2021/05/19 10:18:59;;;;;;;3.85;1.13;;;;;;;;;;5011249;28;20107;-80
2021/05/19 10:21:30;;;;;;;2.65;0.90;;;;;;;;;;5010760;28;20034;-70
2021/05/19 10:24:11;;;;;;;3.35;1.33;;;;;;;;;;5010655;28;20482;-82
2021/05/19 10:26:56;;;;;;;2.45;1.00;;;;;;;;;;5010794;28;20029;-75
2021/05/19 10:29:41;;;;;;;2.70;1.13;;;;;;;;;;5010534;28;20022;-70
2021/05/19 10:32:22;;;;;;;2.33;0.93;;;;;;;;;;5009423;28;20083;-72
2021/05/19 10:34:59;;;;;;;3.15;1.00;;;;;;;;;;5015175;28;20026;-75
2021/05/19 10:37:28;;;;;;;4.68;0.90;;;;;;;;;;5008424;28;20437;-74
2021/05/19 10:40:13;;;;;;;1.88;0.75;;;;;;;;;;5009395;28;20095;-71
2021/05/19 10:42:42;;;;;;;2.15;0.80;;;;;;;;;;5009311;28;20129;-76
2021/05/19 10:45:13;;;;;;;1.55;0.60;;;;;;;;;;5010675;28;20029;-73
2021/05/19 10:47:39;;;;;;;2.00;0.80;;;;;;;;;;5009303;28;20020;-77
2021/05/19 10:50:11;;;;;;;1.52;0.70;;;;;;;;;;5009141;28;20026;-76
2021/05/19 10:58:41;;;;;;;3.47;1.02;;;;;;;;;;5008241;28;20029;-73
2021/05/19 11:01:09;;;;;;;1.95;0.88;;;;;;;;;;5007630;28;20493;-76
2021/05/19 11:03:35;;;;;;;4.78;1.02;;;;;;;;;;5009317;28;20029;-79
2021/05/19 11:06:03;;;;;;;2.83;1.02;;;;;;;;;;5009671;28;20030;-75
2021/05/19 11:08:29;;;;;;;3.85;1.00;;;;;;;;;;5009296;28;20033;-70
2021/05/19 11:11:30;;;;;;;2.22;0.90;;;;;;;;;;5008146;28;20018;-77
2021/05/19 11:13:58;;;;;;;9.77;1.30;;;;;;;;;;4973574;28;20582;-79
2021/05/19 11:16:28;;;;;;;4.60;0.90;;;;;;;;;;4990153;28;20031;-83
2021/05/19 11:19:06;;;;;;;2.80;1.10;;;;;;;;;;5000579;28;20025;-80
2021/05/19 11:21:33;;;;;;;4.88;1.13;;;;;;;;;;5006049;28;20030;-80
2021/05/19 11:24:07;;;;;;;2.42;0.98;;;;;;;;;;5006913;28;20033;-80
2021/05/19 11:26:38;;;;;;;6.28;1.20;;;;;;;;;;5008453;28;20409;-74
2021/05/19 11:29:04;;;;;;;6.95;1.30;;;;;;;;;;5008906;28;20060;-79
2021/05/19 11:31:36;;;;;;;8.15;1.30;;;;;;;;;;5008181;28;20022;-75
2021/05/19 11:34:04;;;;;;;10.82;1.27;;;;;;;;;;5008495;28;20021;-87
2021/05/19 11:36:31;;;;;;;5.68;1.33;;;;;;;;;;5009314;28;20429;-84
2021/05/19 11:39:00;;;;;;;5.70;1.20;;;;;;;;;;5010393;28;20014;-83
2021/05/19 11:41:26;;;;;;;2.55;1.00;;;;;;;;;;5009686;28;20034;-88
2021/05/19 11:43:52;;;;;;;6.07;1.70;;;;;;;;;;5008621;28;20034;-82
2021/05/19 11:46:18;;;;;;;5.72;1.33;;;;;;;;;;5009102;28;20030;-75
2021/05/19 11:48:50;;;;;;;3.70;1.10;;;;;;;;;;5009113;28;20100;-79
2021/05/19 11:51:17;;;;;;;6.43;1.25;;;;;;;;;;5007880;28;20036;-83
2021/05/19 11:54:00;;;;;;;3.20;1.30;;;;;;;;;;5009167;28;20026;-72
2021/05/19 11:56:47;;;;;;;4.13;1.23;;;;;;;;;;5008491;28;20676;-75
2021/05/19 11:59:25;;;;;;;7.53;1.80;;;;;;;;;;5008774;28;20509;-80
2021/05/19 12:01:57;;;;;;;35.53;3.38;;;;;;;;;;5007630;28;20116;-78
2021/05/19 12:04:24;;;;;;;16.55;2.30;;;;;;;;;;5008970;28;20026;-68
2021/05/19 12:06:50;;;;;;;6.85;1.73;;;;;;;;;;5007431;28;20444;-71
2021/05/19 12:09:22;;;;;;;8.25;1.85;;;;;;;;;;5008463;28;20026;-78
2021/05/19 12:11:48;;;;;;;8.83;2.47;;;;;;;;;;5008095;28;20167;-82
2021/05/19 12:14:14;;;;;;;8.52;2.10;;;;;;;;;;5007459;28;20734;-80
2021/05/19 12:16:44;;;;;;;10.70;2.30;;;;;;;;;;5008323;28;20030;-77
2021/05/19 12:19:13;;;;;;;9.95;2.58;;;;;;;;;;5008549;28;20107;-69
2021/05/19 12:21:41;;;;;;;11.98;2.38;;;;;;;;;;5007450;28;20045;-75
2021/05/19 12:24:08;;;;;;;14.07;2.45;;;;;;;;;;5007756;28;20112;-68
2021/05/19 12:26:38;;;;;;;6.45;2.13;;;;;;;;;;5008976;28;20097;-71
2021/05/19 12:29:22;;;;;;;6.72;1.98;;;;;;;;;;5009022;28;20544;-68
2021/05/19 12:31:49;;;;;;;51.22;2.92;;;;;;;;;;5008487;28;20026;-67
2021/05/19 12:34:16;;;;;;;16.85;2.63;;;;;;;;;;5009399;28;20490;-68
2021/05/19 12:36:42;;;;;;;10.60;1.90;;;;;;;;;;4998837;28;20045;-66
2021/05/19 12:39:08;;;;;;;7.32;1.95;;;;;;;;;;4988363;28;20600;-65
2021/05/19 12:41:43;;;;;;;5.93;1.70;;;;;;;;;;4988032;28;20364;-66
2021/05/19 12:44:10;;;;;;;11.45;1.80;;;;;;;;;;4987157;28;20084;-66
2021/05/19 12:46:37;;;;;;;6.57;1.50;;;;;;;;;;4988805;28;20058;-66
2021/05/19 12:49:09;;;;;;;6.25;1.88;;;;;;;;;;4988627;28;20023;-66
2021/05/19 12:51:35;;;;;;;;;;;;;;;;;;4989341;28;20023;-64
2021/05/19 12:54:01;;;;;;;4.40;1.73;;;;;;;;;;4988407;28;19997;-66
2021/05/19 12:56:29;;;;;;;6.90;1.85;;;;;;;;;;4988625;28;20022;-66
2021/05/19 12:58:56;;;;;;;5.10;1.65;;;;;;;;;;4988306;28;20117;-67
2021/05/19 13:01:22;;;;;;;8.73;1.90;;;;;;;;;;4990842;28;20039;-67
2021/05/19 13:03:48;;;;;;;6.35;1.55;;;;;;;;;;4991820;28;20018;-65
2021/05/19 13:06:14;;;;;;;7.50;1.98;;;;;;;;;;4991795;28;20057;-69
2021/05/19 13:08:41;;;;;;;8.00;1.60;;;;;;;;;;4991483;28;20049;-68
2021/05/19 13:11:17;;;;;;;5.03;1.33;;;;;;;;;;4991903;28;20026;-65
2021/05/19 13:13:45;;;;;;;5.93;2.00;;;;;;;;;;4991992;28;20029;-65
2021/05/19 13:16:18;;;;;;;6.32;1.67;;;;;;;;;;4992094;28;20264;-63
2021/05/19 13:18:55;;;;;;;6.10;1.63;;;;;;;;;;4991753;28;20037;-63
2021/05/19 13:21:25;;;;;;;5.68;1.52;;;;;;;;;;4991925;28;20035;-64
2021/05/19 13:23:56;;;;;;;5.45;1.70;;;;;;;;;;4990549;28;20505;-64
2021/05/19 13:26:29;;;;;;;5.00;1.48;;;;;;;;;;4991890;28;20030;-62
2021/05/19 13:28:56;;;;;;;3.47;1.30;;;;;;;;;;4992346;28;20026;-61
2021/05/19 13:31:23;;;;;;;5.13;1.52;;;;;;;;;;4991167;28;20069;-64
2021/05/19 13:38:58;;;;;;;3.20;1.17;;;;;;;;;;4991882;28;20042;-64
2021/05/19 13:41:25;;;;;;;3.17;1.20;;;;;;;;;;4991421;28;20551;-63
2021/05/19 13:43:52;;;;;;;5.47;1.55;;;;;;;;;;4991360;28;20475;-64
2021/05/19 13:46:18;;;;;;;4.78;1.40;;;;;;;;;;5000978;28;20026;-65
2021/05/19 13:48:44;;;;;;;3.92;1.40;;;;;;;;;;5042438;28;20062;-65
2021/05/19 13:51:10;;;;;;;4.18;1.40;;;;;;;;;;5042369;28;20033;-64
2021/05/19 13:53:36;;;;;;;6.97;1.45;;;;;;;;;;5010938;28;20037;-65
2021/05/19 13:56:04;;;;;;;5.00;1.00;;;;;;;;;;5010819;28;20026;-63
2021/05/19 13:58:32;;;;;;;3.42;1.30;;;;;;;;;;5010561;28;20022;-62
2021/05/19 14:01:00;;;;;;;2.65;0.93;;;;;;;;;;5042371;28;20502;-63
2021/05/19 14:03:27;;;;;;;2.95;1.13;;;;;;;;;;5041930;28;20030;-64
2021/05/19 14:05:57;;;;;;;8.98;1.52;;;;;;;;;;5010509;28;20417;-63
2021/05/19 14:08:23;;;;;;;6.25;1.40;;;;;;;;;;5010417;28;20022;-61
2021/05/19 14:11:11;;;;;;;4.07;1.30;;;;;;;;;;5009993;28;20122;-62
2021/05/19 14:13:43;;;;;;;6.22;1.30;;;;;;;;;;5009814;28;20029;-60
2021/05/19 14:27:00;;;;;;;3.20;1.20;;;;;;;;;;5010096;28;20040;-62
2021/05/19 14:29:26;;;;;;;4.60;1.42;;;;;;;;;;5041728;28;20022;-62
2021/05/19 14:31:55;;;;;;;3.72;1.15;;;;;;;;;;5010293;28;20084;-64
2021/05/19 14:34:22;;;;;;;2.70;1.05;;;;;;;;;;5009854;28;20113;-62
2021/05/19 14:37:21;;;;;;;3.50;1.17;;;;;;;;;;5010181;28;20155;-64
2021/05/19 15:01:06;;;;;;;4.80;1.65;;;;;;;;;;5009628;28;20044;-64
2021/05/19 15:03:32;;;;;;;6.05;1.30;;;;;;;;;;5009721;28;20387;-64
2021/05/19 15:05:58;;;;;;;3.60;1.17;;;;;;;;;;5009165;28;20057;-61
2021/05/19 15:08:24;;;;;;;3.22;1.10;;;;;;;;;;5009379;28;20104;-64
2021/05/19 15:10:50;;;;;;;2.70;1.00;;;;;;;;;;5028003;28;20023;-63
2021/05/19 15:13:16;;;;;;;4.65;1.25;;;;;;;;;;5009791;28;20051;-62
2021/05/19 15:15:42;;;;;;;2.67;1.10;;;;;;;;;;5000959;28;20018;-64
2021/05/19 15:18:08;;;;;;;2.17;1.08;;;;;;;;;;4990238;28;20035;-62
2021/05/19 15:20:35;;;;;;;3.67;1.23;;;;;;;;;;5021376;28;20478;-62
2021/05/19 15:23:01;;;;;;;5.88;1.23;;;;;;;;;;4989334;28;20022;-62
2021/05/19 15:25:27;;;;;;;2.90;1.00;;;;;;;;;;4989583;28;20026;-64
2021/05/19 15:27:53;;;;;;;1.90;0.90;;;;;;;;;;4998722;28;20022;-64
2021/05/19 15:30:19;;;;;;;4.15;1.20;;;;;;;;;;5009000;28;20014;-65
2021/05/19 15:32:45;;;;;;;7.22;1.52;;;;;;;;;;5041456;28;20071;-63